createdAt,value
2022-12-04T00:03:07.813Z,-7.69
2022-12-04T00:08:10.849Z,-7.53
2022-12-04T00:13:14.638Z,-7.83
2022-12-04T00:18:17.529Z,-7.60
2022-12-04T00:23:20.487Z,-7.70
2022-12-04T00:28:23.408Z,-7.62
2022-12-04T00:33:26.815Z,-7.78
2022-12-04T00:38:29.842Z,-7.65
2022-12-04T00:43:32.810Z,-7.60
2022-12-04T00:48:36.245Z,-7.58
2022-12-04T00:53:40.162Z,-7.82
2022-12-04T00:58:43.535Z,-7.80
2022-12-04T01:03:47.198Z,-7.69
2022-12-04T01:08:52.427Z,-7.68
2022-12-04T01:13:56.677Z,-7.82
2022-12-04T01:18:59.862Z,-7.72
2022-12-04T01:24:02.939Z,-7.80
2022-12-04T01:29:06.185Z,-7.83
2022-12-04T01:34:09.161Z,-7.91
2022-12-04T01:39:12.626Z,-7.87
2022-12-04T01:44:24.408Z,-8.21
2022-12-04T01:49:34.424Z,-7.61
2022-12-04T01:54:42.274Z,-7.67
2022-12-04T01:59:50.936Z,-7.82
2022-12-04T02:04:54.620Z,-7.90
2022-12-04T02:10:03.936Z,-7.75
2022-12-04T02:15:24.792Z,-7.70
2022-12-04T02:20:39.576Z,-7.74
2022-12-04T02:26:23.501Z,-7.65
2022-12-04T02:31:44.427Z,-7.88
2022-12-04T02:37:13.222Z,-7.71
2022-12-04T02:42:28.291Z,-7.62
2022-12-04T02:47:33.958Z,-7.65
2022-12-04T02:53:06.326Z,-7.73
2022-12-04T02:58:27.160Z,-7.71
2022-12-04T03:03:33.787Z,-7.82
2022-12-04T03:08:51.668Z,-8.03
2022-12-04T03:14:01.639Z,-7.96
2022-12-04T03:19:11.072Z,-7.99
2022-12-04T03:24:36.881Z,-7.88
2022-12-04T03:29:52.913Z,-8.23
2022-12-04T03:35:02.795Z,-8.02
2022-12-04T03:40:25.887Z,-8.22
2022-12-04T03:45:31.483Z,-8.03
2022-12-04T03:50:43.056Z,-8.07
2022-12-04T03:56:06.782Z,-8.23
2022-12-04T04:01:14.078Z,-8.12
2022-12-04T04:06:23.658Z,-8.03
2022-12-04T04:11:33.375Z,-8.06
2022-12-04T04:16:57.708Z,-8.25
2022-12-04T04:22:23.450Z,-8.00
2022-12-04T04:27:26.540Z,-8.70
2022-12-04T04:32:51.641Z,-8.39
2022-12-04T04:38:19.129Z,-8.54
2022-12-04T04:43:56.815Z,-8.34
2022-12-04T04:49:04.047Z,-8.11
2022-12-04T04:54:10.735Z,-8.12
2022-12-04T04:59:15.432Z,-8.36
2022-12-04T05:04:18.392Z,-8.37
2022-12-04T05:09:21.394Z,-8.26
2022-12-04T05:14:24.365Z,-8.07
2022-12-04T05:19:45.773Z,-8.23
2022-12-04T05:24:48.903Z,-8.05
2022-12-04T05:29:56.514Z,-7.77
2022-12-04T05:34:59.766Z,-7.96
2022-12-04T05:40:02.810Z,-7.72
2022-12-04T05:45:06.294Z,-7.70
2022-12-04T05:50:11.331Z,-7.75
2022-12-04T05:55:14.483Z,-7.12
2022-12-04T06:00:18.415Z,-6.99
2022-12-04T06:05:21.587Z,-6.99
2022-12-04T06:10:27.009Z,-6.75
2022-12-04T06:15:29.899Z,-6.13
2022-12-04T06:20:33.785Z,-5.91
2022-12-04T06:25:36.988Z,-5.47
2022-12-04T06:30:39.907Z,-4.94
2022-12-04T06:35:42.826Z,-4.79
2022-12-04T06:40:45.736Z,-4.31
2022-12-04T06:45:48.970Z,-3.28
2022-12-04T06:50:59.763Z,-3.02
2022-12-04T06:56:07.938Z,-2.35
2022-12-04T07:01:13.514Z,2.01
2022-12-04T07:06:28.995Z,5.10
2022-12-04T07:11:32.848Z,6.92
2022-12-04T07:16:40.685Z,8.59
2022-12-04T07:21:44.435Z,9.62
2022-12-04T07:26:47.718Z,10.41
2022-12-04T07:31:50.738Z,11.15
2022-12-04T07:36:53.760Z,11.83
2022-12-04T07:41:56.658Z,12.97
2022-12-04T07:46:59.943Z,13.93
2022-12-04T07:52:02.931Z,15.85
2022-12-04T07:57:05.985Z,14.03
2022-12-04T08:02:09.232Z,15.09
2022-12-04T08:07:12.189Z,15.70
2022-12-04T08:12:15.138Z,16.00
2022-12-04T08:17:18.194Z,16.99
2022-12-04T08:22:25.052Z,17.23
2022-12-04T08:27:28.486Z,17.87
2022-12-04T08:32:31.388Z,18.28
2022-12-04T08:37:34.427Z,18.98
2022-12-04T08:42:37.356Z,18.99
2022-12-04T08:47:40.382Z,18.00
2022-12-04T08:52:43.472Z,20.95
2022-12-04T08:57:46.655Z,20.59
2022-12-04T09:02:50.992Z,19.28
2022-12-04T09:07:54.096Z,21.14
2022-12-04T09:12:57.052Z,20.93
2022-12-04T09:18:00.034Z,21.01
2022-12-04T09:23:05.245Z,18.99
2022-12-04T09:28:08.610Z,16.94
2022-12-04T09:33:11.823Z,15.43
2022-12-04T09:38:14.811Z,15.01
2022-12-04T09:43:31.637Z,15.24
2022-12-04T09:48:40.532Z,15.42
2022-12-04T09:53:53.853Z,17.95
2022-12-04T09:59:04.080Z,16.94
2022-12-04T10:04:09.404Z,15.70
2022-12-04T10:09:33.819Z,13.29
2022-12-04T10:15:05.033Z,13.40
2022-12-04T10:20:20.149Z,13.42
2022-12-04T10:25:25.635Z,14.89
2022-12-04T10:30:35.965Z,12.69
2022-12-04T10:35:44.195Z,11.01
2022-12-04T10:40:52.237Z,14.42
2022-12-04T10:45:55.698Z,17.41
2022-12-04T10:50:58.980Z,16.44
2022-12-04T10:56:35.191Z,17.57
2022-12-04T11:01:38.447Z,19.25
2022-12-04T11:06:41.708Z,18.25
2022-12-04T11:11:44.931Z,18.23
2022-12-04T11:16:59.838Z,19.30
2022-12-04T11:22:18.102Z,19.15
2022-12-04T11:27:34.521Z,17.87
2022-12-04T11:32:39.013Z,15.52
2022-12-04T11:37:45.452Z,16.93
2022-12-04T11:43:05.010Z,17.34
2022-12-04T11:48:17.257Z,15.84
2022-12-04T11:53:32.444Z,15.73
2022-12-04T11:58:45.284Z,14.80
2022-12-04T12:03:51.784Z,12.54
2022-12-04T12:09:18.583Z,11.20
2022-12-04T12:14:24.226Z,10.53
2022-12-04T12:19:40.550Z,9.97
2022-12-04T12:25:11.732Z,7.26
2022-12-04T12:30:21.825Z,6.83
2022-12-04T12:35:33.348Z,5.03
2022-12-04T12:40:51.178Z,3.74
2022-12-04T12:46:02.510Z,2.67
2022-12-04T12:51:33.255Z,3.23
2022-12-04T12:56:49.220Z,2.47
2022-12-04T13:02:00.857Z,1.25
2022-12-04T13:07:21.230Z,-0.08
2022-12-04T13:12:25.194Z,-0.81
2022-12-04T13:17:36.620Z,-1.52
2022-12-04T13:23:00.704Z,-1.53
2022-12-04T13:28:36.558Z,-1.61
2022-12-04T13:34:01.165Z,-1.89
2022-12-04T13:39:34.325Z,-2.02
2022-12-04T13:44:37.603Z,-2.02
2022-12-04T13:49:46.413Z,-2.42
2022-12-04T13:55:00.346Z,-2.43
2022-12-04T14:00:24.804Z,-2.45
2022-12-04T14:05:40.442Z,-2.67
2022-12-04T14:10:44.747Z,-2.76
2022-12-04T14:15:48.428Z,-2.65
2022-12-04T14:21:00.761Z,-2.76
2022-12-04T14:26:05.635Z,-2.87
2022-12-04T14:31:08.845Z,-2.98
2022-12-04T14:36:25.520Z,-2.93
2022-12-04T14:41:28.752Z,-3.18
2022-12-04T14:46:46.292Z,-3.28
2022-12-04T14:51:55.307Z,-3.39
2022-12-04T14:57:32.912Z,-3.33
2022-12-04T15:02:41.750Z,-3.36
2022-12-04T15:07:54.369Z,-3.41
2022-12-04T15:12:57.862Z,-3.68
2022-12-04T15:18:10.256Z,-3.62
2022-12-04T15:23:19.529Z,-3.71
2022-12-04T15:28:49.306Z,-3.65
2022-12-04T15:33:58.953Z,-3.69
2022-12-04T15:39:02.865Z,-3.75
2022-12-04T15:44:30.453Z,-3.71
2022-12-04T15:49:33.936Z,-3.77
2022-12-04T15:54:38.060Z,-3.82
2022-12-04T15:59:41.273Z,-4.08
2022-12-04T16:04:45.654Z,-4.09
2022-12-04T16:10:01.070Z,-3.90
2022-12-04T16:15:06.929Z,-4.02
2022-12-04T16:20:11.889Z,-4.17
2022-12-04T16:25:15.436Z,-4.35
2022-12-04T16:30:18.616Z,-4.46
2022-12-04T16:35:21.898Z,-4.57
2022-12-04T16:40:25.039Z,-4.54
2022-12-04T16:45:32.243Z,-4.40
2022-12-04T16:50:35.509Z,-4.81
2022-12-04T16:55:40.052Z,-4.47
2022-12-04T17:00:45.228Z,-4.76
2022-12-04T17:05:48.496Z,-4.82
2022-12-04T17:10:52.410Z,-4.65
2022-12-04T17:15:55.889Z,-4.65
2022-12-04T17:20:59.207Z,-4.72
2022-12-04T17:26:07.883Z,-4.79
2022-12-04T17:31:29.439Z,-4.74
2022-12-04T17:36:32.573Z,-4.60
2022-12-04T17:41:35.733Z,-4.72
2022-12-04T17:46:39.153Z,-4.78
2022-12-04T17:51:42.283Z,-4.82
2022-12-04T17:56:49.586Z,-4.87
2022-12-04T18:01:55.444Z,-4.94
2022-12-04T18:06:58.739Z,-4.92
2022-12-04T18:12:02.130Z,-5.10
2022-12-04T18:17:05.529Z,-5.07
2022-12-04T18:22:08.773Z,-5.19
2022-12-04T18:27:11.857Z,-5.26
2022-12-04T18:32:14.985Z,-5.25
2022-12-04T18:37:18.773Z,-5.36
2022-12-04T18:42:21.904Z,-5.34
2022-12-04T18:47:27.015Z,-5.14
2022-12-04T18:52:30.185Z,-5.48
2022-12-04T18:57:33.970Z,-5.55
2022-12-04T19:02:37.116Z,-5.76
2022-12-04T19:07:40.360Z,-5.86
2022-12-04T19:12:43.465Z,-5.53
2022-12-04T19:17:46.804Z,-5.79
2022-12-04T19:22:49.979Z,-5.70
2022-12-04T19:27:53.076Z,-5.79
2022-12-04T19:32:56.192Z,-5.54
2022-12-04T19:37:59.344Z,-5.84
2022-12-04T19:43:03.191Z,-5.75
2022-12-04T19:48:06.628Z,-6.24
2022-12-04T19:53:09.845Z,-6.04
2022-12-04T19:58:13.118Z,-6.18
2022-12-04T20:03:16.271Z,-6.24
2022-12-04T20:08:19.450Z,-6.43
2022-12-04T20:13:22.485Z,-6.32
2022-12-04T20:18:25.770Z,-6.47
2022-12-04T20:23:29.630Z,-6.62
2022-12-04T20:28:32.729Z,-6.56
2022-12-04T20:33:35.879Z,-6.58
2022-12-04T20:38:40.386Z,-6.48
2022-12-04T20:43:44.279Z,-6.54
2022-12-04T20:48:49.555Z,-6.43
2022-12-04T20:53:53.944Z,-6.50
2022-12-04T20:58:58.847Z,-6.46
2022-12-04T21:04:02.938Z,-6.81
2022-12-04T21:09:08.975Z,-6.79
2022-12-04T21:14:37.665Z,-6.44
2022-12-04T21:19:40.920Z,-6.59
2022-12-04T21:24:44.159Z,-6.63
2022-12-04T21:29:47.226Z,-6.60
2022-12-04T21:34:52.124Z,-6.73
2022-12-04T21:39:55.706Z,-6.79
2022-12-04T21:45:04.401Z,-6.64
2022-12-04T21:50:08.126Z,-6.92
2022-12-04T21:55:11.340Z,-6.68
2022-12-04T22:00:15.156Z,-6.70
2022-12-04T22:05:18.257Z,-6.66
2022-12-04T22:10:21.393Z,-6.98
2022-12-04T22:15:24.475Z,-6.73
2022-12-04T22:20:27.918Z,-6.81
2022-12-04T22:25:31.550Z,-6.93
2022-12-04T22:30:34.887Z,-6.95
2022-12-04T22:35:38.311Z,-7.04
2022-12-04T22:40:41.487Z,-6.88
2022-12-04T22:45:44.686Z,-6.91
2022-12-04T22:50:56.939Z,-7.05
2022-12-04T22:56:28.003Z,-7.07
2022-12-04T23:01:34.691Z,-7.17
2022-12-04T23:06:38.105Z,-7.08
2022-12-04T23:11:41.793Z,-7.03
2022-12-04T23:16:45.010Z,-7.26
2022-12-04T23:21:56.438Z,-7.04
2022-12-04T23:27:00.248Z,-7.13
2022-12-04T23:32:03.369Z,-7.13
2022-12-04T23:37:07.684Z,-7.33
2022-12-04T23:42:10.795Z,-7.07
2022-12-04T23:47:13.953Z,-7.29
2022-12-04T23:52:17.076Z,-7.36
2022-12-04T23:57:20.282Z,-7.44
